Time;durP1;ratioP1;P1;durP2;ratioP2;P2;SDS_P1;SDS_P2;PMS_P1;PMS_P2;Temp;Humidity;BMP_temperature;BMP_pressure;BME280_temperature;BME280_humidity;BME280_pressure;Samples;Min_cycle;Max_cycle;Signal;HPM_P1;HPM_P2
2022/04/26 03:36:09;;;;;;;0.97;0.97;;;11.10;99.90;;;;;;5033176;28;20299;-64
2022/04/26 03:38:36;;;;;;;0.90;0.90;;;11.00;99.90;;;;;;5032567;28;20201;-65
2022/04/26 03:41:03;;;;;;;1.00;1.00;;;11.00;99.90;;;;;;5034059;28;20251;-64
2022/04/26 03:43:30;;;;;;;0.90;0.90;;;10.90;99.90;;;;;;5034593;28;20331;-63
2022/04/26 03:45:58;;;;;;;1.00;1.00;;;11.00;99.90;;;;;;5033048;28;20221;-63
2022/04/26 03:48:26;;;;;;;0.93;0.93;;;11.00;99.90;;;;;;5031592;28;20200;-65
2022/04/26 03:50:53;;;;;;;0.97;0.97;;;11.00;99.90;;;;;;5033208;28;20244;-62
2022/04/26 03:53:20;;;;;;;0.70;0.70;;;11.10;99.90;;;;;;5033182;28;20291;-63
2022/04/26 03:55:47;;;;;;;0.93;0.93;;;11.10;99.90;;;;;;5032540;28;20709;-64
2022/04/26 03:58:14;;;;;;;0.90;0.90;;;11.10;99.90;;;;;;5031885;28;20236;-65
2022/04/26 04:00:41;;;;;;;1.00;1.00;;;11.20;99.90;;;;;;5032874;28;20256;-62
2022/04/26 04:03:08;;;;;;;0.80;0.80;;;11.20;99.90;;;;;;5032359;28;20242;-64
2022/04/26 04:05:37;;;;;;;0.80;0.80;;;11.20;99.90;;;;;;5032602;28;20228;-63
2022/04/26 04:08:04;;;;;;;0.80;0.80;;;11.20;99.90;;;;;;5031618;28;20204;-62
2022/04/26 04:10:31;;;;;;;0.90;0.90;;;11.20;99.90;;;;;;5032471;28;20308;-64
2022/04/26 04:12:58;;;;;;;1.03;1.03;;;11.20;99.90;;;;;;5032983;28;20291;-63
2022/04/26 04:15:24;;;;;;;0.90;0.90;;;11.20;99.90;;;;;;5033092;28;20215;-64
2022/04/26 04:17:51;;;;;;;0.90;0.90;;;11.10;99.90;;;;;;5032995;28;20287;-64
2022/04/26 04:20:18;;;;;;;1.00;1.00;;;11.10;99.90;;;;;;5039596;28;20300;-63
2022/04/26 04:22:48;;;;;;;0.80;0.80;;;11.10;99.90;;;;;;5040815;28;20208;-64
2022/04/26 04:25:16;;;;;;;1.00;1.00;;;11.00;99.90;;;;;;5039834;28;20216;-66
2022/04/26 04:27:43;;;;;;;0.80;0.80;;;11.10;99.90;;;;;;5037316;28;20215;-63
2022/04/26 04:30:12;;;;;;;0.97;0.97;;;11.00;99.90;;;;;;5032828;28;20251;-66
2022/04/26 04:32:38;;;;;;;0.90;0.90;;;11.10;99.90;;;;;;5031083;28;20571;-62
2022/04/26 04:35:07;;;;;;;0.80;0.80;;;11.00;99.90;;;;;;5036817;28;20196;-64
2022/04/26 04:37:34;;;;;;;1.00;1.00;;;10.90;99.90;;;;;;5038604;28;20239;-63
2022/04/26 04:40:02;;;;;;;0.83;0.83;;;10.80;99.90;;;;;;5045144;28;20303;-65
2022/04/26 04:42:29;;;;;;;1.00;1.00;;;10.80;99.90;;;;;;5041742;28;20351;-64
2022/04/26 04:44:56;;;;;;;1.00;1.00;;;10.90;99.90;;;;;;5047865;28;20287;-64
2022/04/26 04:47:23;;;;;;;1.00;1.00;;;10.90;99.90;;;;;;5034117;28;20478;-66
2022/04/26 04:49:50;;;;;;;0.90;0.90;;;10.90;99.90;;;;;;5033742;28;20690;-63
2022/04/26 04:52:17;;;;;;;0.90;0.90;;;10.90;99.90;;;;;;5035761;28;20239;-65
2022/04/26 04:54:44;;;;;;;0.90;0.90;;;10.90;99.90;;;;;;5034198;28;20687;-65
2022/04/26 04:57:12;;;;;;;1.00;1.00;;;10.90;99.90;;;;;;5038042;28;20287;-62
2022/04/26 04:59:39;;;;;;;1.00;1.00;;;10.90;99.90;;;;;;5046937;28;20231;-64
2022/04/26 05:02:06;;;;;;;1.00;1.00;;;10.90;99.90;;;;;;5032294;28;20204;-63
2022/04/26 05:04:34;;;;;;;0.90;0.90;;;10.80;99.90;;;;;;5032352;28;20762;-64
2022/04/26 05:07:00;;;;;;;1.00;1.00;;;10.80;99.90;;;;;;5032911;28;20232;-63
2022/04/26 05:09:27;;;;;;;1.07;1.07;;;10.90;99.90;;;;;;5033736;28;20302;-63
2022/04/26 05:11:54;;;;;;;1.00;1.00;;;10.90;99.90;;;;;;5032486;28;20251;-64
2022/04/26 05:14:23;;;;;;;1.00;1.00;;;11.00;99.90;;;;;;5031725;28;20296;-64
2022/04/26 05:16:50;;;;;;;0.90;0.90;;;11.00;99.90;;;;;;5031700;28;20204;-64
2022/04/26 05:19:17;;;;;;;1.00;1.00;;;11.00;99.90;;;;;;5030784;28;20297;-61
2022/04/26 05:21:44;;;;;;;0.90;0.90;;;11.00;99.90;;;;;;5034875;28;20204;-63
2022/04/26 05:26:55;;;;;;;0.97;0.97;;;11.00;99.90;;;;;;5024924;28;20214;-65
2022/04/26 05:29:23;;;;;;;0.90;0.90;;;11.10;99.90;;;;;;5022641;28;20235;-63
2022/04/26 05:31:50;;;;;;;1.00;1.00;;;11.10;99.90;;;;;;5025348;28;20290;-64
2022/04/26 05:34:16;;;;;;;1.10;1.10;;;11.20;99.90;;;;;;5037184;28;20204;-63
2022/04/26 05:36:43;;;;;;;1.03;1.03;;;11.20;99.90;;;;;;5043363;28;20581;-63
2022/04/26 05:39:10;;;;;;;1.30;1.27;;;11.10;99.90;;;;;;5039269;28;20679;-63
2022/04/26 05:41:37;;;;;;;1.00;1.00;;;11.00;99.90;;;;;;5049757;28;20230;-63
2022/04/26 05:44:04;;;;;;;1.07;1.00;;;11.00;99.90;;;;;;5051728;28;20228;-62
2022/04/26 05:46:33;;;;;;;1.00;1.00;;;11.00;99.90;;;;;;5051995;28;20236;-63
2022/04/26 05:49:00;;;;;;;1.20;1.20;;;11.00;99.90;;;;;;5046601;28;20234;-62
2022/04/26 05:51:26;;;;;;;1.10;1.10;;;11.00;99.90;;;;;;5031637;28;20264;-63
2022/04/26 05:53:53;;;;;;;1.13;1.13;;;11.10;99.90;;;;;;5046329;28;20204;-63
2022/04/26 05:56:20;;;;;;;0.97;0.97;;;11.20;99.90;;;;;;5054372;28;20215;-64
2022/04/26 05:58:47;;;;;;;1.00;1.00;;;11.20;99.90;;;;;;5054224;28;20295;-65
2022/04/26 06:01:14;;;;;;;1.10;1.10;;;11.20;99.90;;;;;;5043543;28;20294;-63
2022/04/26 06:03:42;;;;;;;1.13;1.13;;;11.20;99.90;;;;;;5046611;28;20252;-63
2022/04/26 06:06:09;;;;;;;1.10;1.10;;;11.30;99.90;;;;;;5054750;28;20372;-63
2022/04/26 06:08:36;;;;;;;1.20;1.07;;;11.30;99.90;;;;;;5053322;28;20239;-63
2022/04/26 06:11:03;;;;;;;1.10;1.10;;;11.40;99.90;;;;;;5034907;28;20287;-63
2022/04/26 06:13:30;;;;;;;1.10;1.10;;;11.50;99.90;;;;;;5042554;28;20204;-63
2022/04/26 06:15:57;;;;;;;1.17;1.17;;;11.70;99.90;;;;;;5047842;28;20218;-63
2022/04/26 06:18:24;;;;;;;1.10;1.10;;;11.90;99.90;;;;;;5054592;28;20241;-65
2022/04/26 06:20:52;;;;;;;1.00;1.00;;;11.90;99.90;;;;;;5046687;28;20259;-63
2022/04/26 06:23:19;;;;;;;1.47;1.10;;;11.90;99.90;;;;;;5051016;28;20728;-63
2022/04/26 06:25:46;;;;;;;1.10;1.10;;;12.00;99.90;;;;;;5030903;28;20723;-64
2022/04/26 06:28:13;;;;;;;0.97;0.97;;;12.10;99.90;;;;;;5033576;28;20746;-62
2022/04/26 06:30:39;;;;;;;1.10;1.10;;;12.10;99.90;;;;;;5035048;28;20221;-63
2022/04/26 06:33:07;;;;;;;1.17;1.17;;;12.20;99.90;;;;;;5030467;28;20208;-63
2022/04/26 06:35:34;;;;;;;1.20;1.20;;;12.20;99.90;;;;;;5036998;28;20660;-64
2022/04/26 06:38:02;;;;;;;1.63;1.53;;;12.40;99.90;;;;;;5035345;28;20269;-63
2022/04/26 06:40:29;;;;;;;1.50;1.50;;;12.40;99.90;;;;;;5036409;28;20252;-65
2022/04/26 06:42:58;;;;;;;1.60;1.60;;;12.10;99.90;;;;;;5035102;28;20216;-64
2022/04/26 06:45:25;;;;;;;1.80;1.70;;;12.00;99.90;;;;;;5034987;28;20246;-64
2022/04/26 06:47:54;;;;;;;1.70;1.63;;;11.90;99.90;;;;;;5038823;28;20235;-64
2022/04/26 06:50:21;;;;;;;1.90;1.80;;;11.80;99.90;;;;;;5036233;28;20224;-64
2022/04/26 06:52:48;;;;;;;1.60;1.60;;;11.70;99.90;;;;;;5034415;28;20205;-62
2022/04/26 06:55:16;;;;;;;1.70;1.60;;;11.70;99.90;;;;;;5034192;28;20208;-64
2022/04/26 06:57:43;;;;;;;1.73;1.73;;;11.80;99.90;;;;;;5034366;28;20239;-64
2022/04/26 07:00:11;;;;;;;1.83;1.73;;;11.90;99.90;;;;;;5034904;28;20235;-65
2022/04/26 07:02:38;;;;;;;1.87;1.80;;;11.90;99.90;;;;;;5035268;28;20633;-65
2022/04/26 07:05:06;;;;;;;2.00;1.90;;;12.00;99.90;;;;;;5034775;28;20294;-63
2022/04/26 07:07:32;;;;;;;2.20;2.00;;;11.90;99.90;;;;;;5033440;28;20244;-64
2022/04/26 07:09:59;;;;;;;1.90;1.80;;;11.80;99.90;;;;;;5033709;28;20256;-64
2022/04/26 07:12:28;;;;;;;1.90;1.80;;;11.80;99.90;;;;;;5033629;28;20254;-63
2022/04/26 07:14:54;;;;;;;2.30;2.20;;;11.80;99.90;;;;;;5033653;28;20691;-63
2022/04/26 07:17:21;;;;;;;2.00;1.90;;;11.70;99.90;;;;;;5033498;28;20236;-64
2022/04/26 07:19:48;;;;;;;2.03;1.93;;;11.80;99.90;;;;;;5032861;28;20272;-64
2022/04/26 07:22:15;;;;;;;2.20;2.10;;;11.70;99.90;;;;;;5033528;28;20679;-63
2022/04/26 07:24:43;;;;;;;1.90;1.80;;;11.80;99.90;;;;;;5033819;28;20248;-63
2022/04/26 07:27:11;;;;;;;2.10;2.00;;;11.70;99.90;;;;;;5033880;28;20208;-63
2022/04/26 07:29:41;;;;;;;1.83;1.80;;;11.80;99.90;;;;;;5034182;28;20295;-63
2022/04/26 07:32:08;;;;;;;1.87;1.77;;;11.90;99.90;;;;;;5033687;28;20209;-64
2022/04/26 07:34:34;;;;;;;2.40;2.30;;;11.80;99.90;;;;;;5033692;28;20205;-65
2022/04/26 07:37:02;;;;;;;1.90;1.80;;;11.90;99.90;;;;;;5034943;28;20266;-64
2022/04/26 07:39:30;;;;;;;2.20;2.10;;;12.10;99.90;;;;;;5048820;28;20227;-64
2022/04/26 07:41:57;;;;;;;2.30;2.20;;;12.10;99.90;;;;;;5048321;28;20262;-65
2022/04/26 07:44:24;;;;;;;2.00;1.90;;;12.00;99.90;;;;;;5041119;28;20288;-65
2022/04/26 07:46:54;;;;;;;2.20;2.10;;;12.10;99.90;;;;;;5035271;28;20590;-63
2022/04/26 07:49:23;;;;;;;1.70;1.70;;;12.10;99.90;;;;;;5033170;28;20252;-64
2022/04/26 07:51:51;;;;;;;1.77;1.70;;;12.20;99.90;;;;;;5033090;28;20215;-63
2022/04/26 07:54:18;;;;;;;1.90;1.80;;;12.20;99.90;;;;;;5032607;28;20296;-63
2022/04/26 07:56:46;;;;;;;1.90;1.80;;;12.20;99.90;;;;;;5033189;28;20291;-65
2022/04/26 07:59:14;;;;;;;1.87;1.77;;;12.20;99.90;;;;;;5032193;28;20282;-65
2022/04/26 08:01:41;;;;;;;2.10;2.00;;;12.30;99.90;;;;;;5032444;28;20208;-69
2022/04/26 08:04:10;;;;;;;2.00;1.90;;;12.30;99.90;;;;;;5033455;28;20208;-65
2022/04/26 08:06:37;;;;;;;2.10;2.00;;;12.30;99.90;;;;;;5032941;28;20208;-65
2022/04/26 08:09:04;;;;;;;1.90;1.80;;;12.40;99.90;;;;;;5031930;28;20267;-64
2022/04/26 08:11:31;;;;;;;2.17;2.07;;;12.50;99.90;;;;;;5032777;28;20291;-64
2022/04/26 08:13:58;;;;;;;1.93;1.83;;;12.60;99.90;;;;;;5032496;28;20232;-64
2022/04/26 08:16:25;;;;;;;1.80;1.70;;;12.60;99.90;;;;;;5032375;28;20255;-64
2022/04/26 08:29:18;;;;;;;1.70;1.70;;;13.10;99.90;;;;;;5069065;28;20230;-68
2022/04/26 08:31:45;;;;;;;2.07;1.90;;;13.00;99.90;;;;;;5071354;28;20199;-69
2022/04/26 08:34:12;;;;;;;1.90;1.80;;;12.90;99.90;;;;;;5072329;28;20213;-67
2022/04/26 08:36:40;;;;;;;2.07;1.97;;;13.00;99.90;;;;;;5072345;28;20213;-69
2022/04/26 08:39:08;;;;;;;1.90;1.80;;;13.30;99.90;;;;;;5071414;28;20227;-65
2022/04/26 08:41:35;;;;;;;2.00;1.90;;;13.60;99.90;;;;;;5071371;28;20290;-66
2022/04/26 08:44:02;;;;;;;1.93;1.83;;;13.60;99.90;;;;;;5071603;28;20207;-68
2022/04/26 08:52:01;;;;;;;2.00;1.90;;;14.10;99.90;;;;;;5071252;28;20883;-66
2022/04/26 08:54:30;;;;;;;1.70;1.60;;;14.10;99.90;;;;;;5071631;28;20203;-66
2022/04/26 08:56:57;;;;;;;1.80;1.70;;;14.40;99.90;;;;;;5071678;28;20199;-67
2022/04/26 08:59:24;;;;;;;1.80;1.70;;;14.60;99.90;;;;;;5071127;28;20227;-68
2022/04/26 09:01:52;;;;;;;1.80;1.70;;;14.70;99.90;;;;;;5071659;28;20203;-68
2022/04/26 09:04:18;;;;;;;1.70;1.60;;;15.10;99.90;;;;;;5071646;28;20215;-69
2022/04/26 09:06:45;;;;;;;1.80;1.70;;;15.00;99.90;;;;;;5071668;28;20704;-67
2022/04/26 09:09:14;;;;;;;1.97;1.87;;;14.80;99.90;;;;;;5070583;28;20203;-68
2022/04/26 09:11:43;;;;;;;1.70;1.70;;;14.50;99.90;;;;;;5071318;28;20236;-68
2022/04/26 09:14:28;;;;;;;1.53;1.53;;;14.20;99.90;;;;;;5071203;28;20203;-65
2022/04/26 09:17:04;;;;;;;1.67;1.60;;;14.10;99.90;;;;;;5068670;28;20234;-66
2022/04/26 09:19:43;;;;;;;1.40;1.40;;;14.40;99.90;;;;;;5070831;28;20221;-65
2022/04/26 09:22:16;;;;;;;1.30;1.30;;;14.90;99.90;;;;;;5072286;28;20218;-66
2022/04/26 09:24:57;;;;;;;1.70;1.60;;;15.20;99.90;;;;;;5074399;28;20234;-66
2022/04/26 09:27:27;;;;;;;1.70;1.60;;;15.40;99.90;;;;;;5056190;28;20687;-65
2022/04/26 09:29:54;;;;;;;1.40;1.40;;;15.60;99.90;;;;;;5055566;28;20259;-65
2022/04/26 09:32:21;;;;;;;1.90;1.80;;;15.60;99.90;;;;;;5055486;28;20291;-66
2022/04/26 09:34:48;;;;;;;1.77;1.67;;;15.50;99.90;;;;;;5054901;28;20724;-66
2022/04/26 09:37:16;;;;;;;1.70;1.60;;;15.60;99.90;;;;;;5055222;28;20290;-65
2022/04/26 09:40:01;;;;;;;1.50;1.50;;;15.80;99.90;;;;;;5054099;28;20744;-66
2022/04/26 09:42:33;;;;;;;1.73;1.67;;;15.90;99.90;;;;;;5055601;28;20207;-67
2022/04/26 09:45:08;;;;;;;1.90;1.80;;;16.10;99.90;;;;;;5055937;28;20224;-66
2022/04/26 09:47:37;;;;;;;1.77;1.67;;;16.00;99.90;;;;;;5056064;28;20214;-66
2022/04/26 09:50:06;;;;;;;1.80;1.70;;;15.80;99.90;;;;;;5056193;28;20296;-65
2022/04/26 09:52:33;;;;;;;1.47;1.47;;;16.00;99.90;;;;;;5056181;28;20239;-66
2022/04/26 09:55:00;;;;;;;1.40;1.40;;;16.10;99.90;;;;;;5055378;28;20278;-67
2022/04/26 09:57:32;;;;;;;1.80;1.70;;;16.60;99.90;;;;;;5054567;28;20188;-67
2022/04/26 10:00:01;;;;;;;1.70;1.60;;;17.00;99.90;;;;;;5054993;28;20238;-67
2022/04/26 10:02:31;;;;;;;1.60;1.50;;;17.20;99.90;;;;;;5054667;28;20200;-68
2022/04/26 10:05:03;;;;;;;1.70;1.60;;;16.90;99.90;;;;;;5054360;28;20606;-66
2022/04/26 10:07:35;;;;;;;1.70;1.60;;;16.60;99.90;;;;;;5054259;28;20299;-66
2022/04/26 10:10:04;;;;;;;1.60;1.60;;;16.80;99.90;;;;;;5055076;28;20307;-67
2022/04/26 10:12:32;;;;;;;1.43;1.43;;;17.00;99.90;;;;;;5054582;28;20685;-68
2022/04/26 10:15:01;;;;;;;1.10;1.10;;;17.00;99.90;;;;;;5055568;28;20204;-67
2022/04/26 10:17:32;;;;;;;1.50;1.40;;;16.30;99.90;;;;;;5055084;28;20204;-67
2022/04/26 10:20:00;;;;;;;2.10;1.57;;;15.50;99.90;;;;;;5054434;28;20232;-67
2022/04/26 10:22:58;;;;;;;0.87;0.87;;;14.70;99.90;;;;;;5055117;28;20302;-67
2022/04/26 10:25:26;;;;;;;0.80;0.80;;;13.80;99.90;;;;;;5056130;28;20239;-65
2022/04/26 10:28:27;;;;;;;0.90;0.90;;;13.30;99.90;;;;;;5056673;28;20207;-67
2022/04/26 10:30:57;;;;;;;1.10;1.10;;;13.00;99.90;;;;;;5058260;28;20267;-66
2022/04/26 10:33:38;;;;;;;1.13;0.83;;;12.80;99.90;;;;;;5056587;28;20270;-66
2022/04/26 10:36:34;;;;;;;1.00;1.00;;;12.60;99.90;;;;;;5054819;28;20291;-67
2022/04/26 10:39:26;;;;;;;0.77;0.77;;;12.60;99.90;;;;;;5054980;28;20215;-67
2022/04/26 10:41:54;;;;;;;1.10;1.10;;;12.40;99.90;;;;;;5054657;28;20195;-66
2022/04/26 10:44:27;;;;;;;1.03;1.03;;;12.40;99.90;;;;;;5054636;28;20586;-67
2022/04/26 10:47:34;;;;;;;0.90;0.90;;;12.30;99.90;;;;;;5055327;28;20232;-66
2022/04/26 10:50:05;;;;;;;0.90;0.90;;;12.30;99.90;;;;;;5054549;28;20262;-66
2022/04/26 10:52:50;;;;;;;1.20;1.20;;;12.20;99.90;;;;;;5055386;28;20262;-67
2022/04/26 10:55:18;;;;;;;1.17;1.07;;;12.20;99.90;;;;;;5055898;28;20198;-67
2022/04/26 10:57:50;;;;;;;1.23;1.10;;;12.20;99.90;;;;;;5059603;28;20735;-66
2022/04/26 11:00:20;;;;;;;0.97;0.97;;;12.30;99.90;;;;;;5058334;28;20227;-65
2022/04/26 11:02:48;;;;;;;0.90;0.90;;;12.50;99.90;;;;;;5055258;28;20299;-66
2022/04/26 11:05:18;;;;;;;1.00;1.00;;;12.60;99.90;;;;;;5053188;28;20269;-65
2022/04/26 11:07:46;;;;;;;0.90;0.90;;;12.90;99.90;;;;;;5053112;28;20832;-67
2022/04/26 11:10:15;;;;;;;1.00;1.00;;;13.00;99.90;;;;;;5054228;28;20311;-65
2022/04/26 11:12:43;;;;;;;0.90;0.90;;;12.90;99.90;;;;;;5053482;28;20294;-66
2022/04/26 11:15:12;;;;;;;1.07;1.00;;;13.00;99.90;;;;;;5053636;28;20291;-66
2022/04/26 11:17:40;;;;;;;0.83;0.83;;;13.00;99.90;;;;;;5053003;28;20205;-67
2022/04/26 11:20:14;;;;;;;0.90;0.90;;;12.90;99.90;;;;;;5053870;28;20238;-66
2022/04/26 11:22:48;;;;;;;0.87;0.87;;;12.90;99.90;;;;;;5054101;28;20239;-66
2022/04/26 11:28:03;;;;;;;1.00;0.90;;;12.90;99.90;;;;;;5056135;28;20187;-66
2022/04/26 11:30:31;;;;;;;1.00;1.00;;;13.30;99.90;;;;;;5057491;28;20318;-68
2022/04/26 11:32:59;;;;;;;0.83;0.83;;;13.70;99.90;;;;;;5059990;28;20204;-66
2022/04/26 11:35:27;;;;;;;0.80;0.80;;;13.90;99.90;;;;;;5057969;28;20230;-66
2022/04/26 11:38:03;;;;;;;0.97;0.87;;;14.10;99.90;;;;;;5057435;28;20281;-67
2022/04/26 11:40:31;;;;;;;0.93;0.93;;;14.10;99.90;;;;;;5054228;28;20776;-67
2022/04/26 11:42:59;;;;;;;0.80;0.80;;;14.40;99.90;;;;;;5053680;28;20680;-66
2022/04/26 11:45:29;;;;;;;1.77;1.40;;;14.30;99.90;;;;;;5052602;28;20255;-67
2022/04/26 11:47:57;;;;;;;0.87;0.87;;;14.50;99.90;;;;;;5052838;28;20206;-66
2022/04/26 11:50:26;;;;;;;0.80;0.80;;;14.70;99.90;;;;;;5052955;28;20595;-67
2022/04/26 11:53:00;;;;;;;0.87;0.87;;;14.80;99.90;;;;;;5053449;28;20204;-67
2022/04/26 11:55:29;;;;;;;0.90;0.90;;;14.90;99.90;;;;;;5053645;28;20638;-66
2022/04/26 11:58:12;;;;;;;1.00;1.00;;;15.20;99.90;;;;;;5052365;28;20200;-66
2022/04/26 12:00:50;;;;;;;1.00;1.00;;;15.10;99.90;;;;;;5051934;28;20228;-66
2022/04/26 12:03:18;;;;;;;1.27;1.20;;;15.00;99.90;;;;;;5052406;28;20218;-67
2022/04/26 12:05:46;;;;;;;0.90;0.90;;;14.90;99.90;;;;;;5052730;28;20269;-67
2022/04/26 12:08:14;;;;;;;1.23;1.23;;;14.90;99.90;;;;;;5052331;28;20224;-67
2022/04/26 12:10:41;;;;;;;1.20;1.20;;;14.80;99.90;;;;;;5052329;28;20232;-68
2022/04/26 12:13:08;;;;;;;1.17;1.10;;;14.80;99.90;;;;;;5052839;28;20263;-66
2022/04/26 12:15:38;;;;;;;0.80;0.80;;;14.60;99.90;;;;;;5052913;28;20680;-65
2022/04/26 12:18:07;;;;;;;0.80;0.80;;;14.50;99.90;;;;;;5052089;28;20215;-68
2022/04/26 12:20:36;;;;;;;1.00;1.00;;;14.40;99.90;;;;;;5051994;28;20231;-64
2022/04/26 12:23:04;;;;;;;1.53;1.00;;;14.20;99.90;;;;;;5052156;28;20219;-67
2022/04/26 12:25:33;;;;;;;0.93;0.93;;;14.20;99.90;;;;;;5034620;28;20224;-67
2022/04/26 12:28:08;;;;;;;0.80;0.80;;;14.20;99.90;;;;;;5051533;28;20561;-66
2022/04/26 12:30:38;;;;;;;0.83;0.83;;;14.40;99.90;;;;;;5051969;28;20280;-67
2022/04/26 12:33:08;;;;;;;0.90;0.90;;;14.60;99.90;;;;;;5051919;28;20200;-68
2022/04/26 12:35:35;;;;;;;1.10;1.10;;;14.80;99.90;;;;;;5052927;28;20325;-67
2022/04/26 12:38:06;;;;;;;1.37;1.27;;;14.90;99.90;;;;;;5053319;28;20208;-67
2022/04/26 12:40:35;;;;;;;1.00;1.00;;;15.00;99.90;;;;;;5052618;28;20315;-67
2022/04/26 12:43:02;;;;;;;1.47;1.37;;;15.00;99.90;;;;;;5052672;28;20880;-65
2022/04/26 12:45:29;;;;;;;1.00;1.00;;;15.00;99.90;;;;;;5052674;28;20258;-67
2022/04/26 12:50:52;;;;;;;0.80;0.80;;;15.60;99.90;;;;;;5051493;28;20242;-65
2022/04/26 12:53:24;;;;;;;0.83;0.83;;;15.60;99.90;;;;;;5052191;28;20220;-66
2022/04/26 12:55:53;;;;;;;0.90;0.90;;;15.40;99.90;;;;;;5052275;28;20677;-66
2022/04/26 12:58:35;;;;;;;0.97;0.97;;;15.20;99.90;;;;;;5049974;28;20254;-65
2022/04/26 13:01:02;;;;;;;1.50;1.40;;;14.90;99.90;;;;;;5051085;28;20302;-66
2022/04/26 13:03:29;;;;;;;1.50;1.40;;;14.60;99.90;;;;;;5051727;28;20294;-65
2022/04/26 13:06:08;;;;;;;1.40;1.30;;;14.20;99.90;;;;;;5051514;28;20253;-65
2022/04/26 13:08:35;;;;;;;1.20;1.20;;;13.90;99.90;;;;;;5051149;28;20184;-67
2022/04/26 13:11:05;;;;;;;2.40;2.30;;;13.70;99.90;;;;;;5064525;28;20233;-65
2022/04/26 13:13:33;;;;;;;1.70;1.60;;;13.60;99.90;;;;;;5069159;28;20219;-66
2022/04/26 13:16:00;;;;;;;1.90;1.80;;;13.50;99.90;;;;;;5069511;28;20195;-66
2022/04/26 13:18:28;;;;;;;2.00;1.90;;;13.50;99.90;;;;;;5070706;28;20249;-66
2022/04/26 13:20:56;;;;;;;2.50;2.40;;;13.40;99.90;;;;;;5075502;28;20238;-65
2022/04/26 13:23:23;;;;;;;1.70;1.60;;;13.30;99.90;;;;;;5069292;28;20302;-65
2022/04/26 13:25:50;;;;;;;1.80;1.70;;;13.40;99.90;;;;;;5069916;28;20219;-65
2022/04/26 13:28:20;;;;;;;1.70;1.60;;;13.40;99.90;;;;;;5069639;28;20593;-65
2022/04/26 13:30:47;;;;;;;1.50;1.50;;;13.40;99.90;;;;;;5070293;28;20230;-66
2022/04/26 13:33:14;;;;;;;1.90;1.80;;;13.50;99.90;;;;;;5068842;28;20239;-65
2022/04/26 13:35:41;;;;;;;1.80;1.70;;;13.40;99.90;;;;;;5069895;28;20210;-65
2022/04/26 13:38:09;;;;;;;1.60;1.50;;;13.40;99.90;;;;;;5070183;28;20314;-65
2022/04/26 13:40:37;;;;;;;1.60;1.50;;;13.40;99.90;;;;;;5070437;28;20220;-66
2022/04/26 13:43:04;;;;;;;1.40;1.40;;;13.40;99.90;;;;;;5070099;28;20214;-65
2022/04/26 13:45:33;;;;;;;1.27;1.27;;;13.50;99.90;;;;;;5074065;28;20199;-65
2022/04/26 13:48:01;;;;;;;1.30;1.30;;;13.60;99.90;;;;;;5071168;28;20681;-66
2022/04/26 13:50:28;;;;;;;1.53;1.43;;;13.60;99.90;;;;;;5071123;28;20776;-64
2022/04/26 13:52:55;;;;;;;1.47;1.43;;;13.70;99.90;;;;;;5072402;28;20211;-65
2022/04/26 13:55:26;;;;;;;1.60;1.50;;;13.80;99.90;;;;;;5074016;28;20230;-65
2022/04/26 13:57:53;;;;;;;1.60;1.50;;;13.70;99.90;;;;;;5071183;28;20607;-66
2022/04/26 14:00:21;;;;;;;1.63;1.53;;;13.50;99.90;;;;;;5070408;28;20255;-66
2022/04/26 14:02:49;;;;;;;1.50;1.40;;;13.50;99.90;;;;;;5071413;28;20211;-65
2022/04/26 14:05:17;;;;;;;1.60;1.50;;;13.50;99.90;;;;;;5071029;28;20260;-65
2022/04/26 14:07:46;;;;;;;1.40;1.40;;;13.60;99.90;;;;;;5070289;28;20233;-66
2022/04/26 14:10:13;;;;;;;1.63;1.53;;;13.40;99.90;;;;;;5073416;28;20318;-66
2022/04/26 14:12:40;;;;;;;1.63;1.53;;;13.30;99.90;;;;;;5074994;28;20231;-66
2022/04/26 14:23:27;;;;;;;1.50;1.40;;;13.90;99.90;;;;;;5074165;28;20226;-67
2022/04/26 14:25:54;;;;;;;1.87;1.70;;;13.80;99.90;;;;;;5074806;28;20203;-68
2022/04/26 14:28:20;;;;;;;1.73;1.63;;;13.60;99.90;;;;;;5074084;28;20230;-66
2022/04/26 14:30:47;;;;;;;1.50;1.40;;;13.60;99.90;;;;;;5074041;28;20223;-68
2022/04/26 14:33:17;;;;;;;1.13;1.13;;;13.60;99.90;;;;;;5073860;28;20207;-66
2022/04/26 14:35:44;;;;;;;1.20;1.20;;;13.60;99.90;;;;;;5074298;28;20310;-66
2022/04/26 14:38:11;;;;;;;1.30;1.30;;;13.60;99.90;;;;;;5073842;28;20340;-67
2022/04/26 14:40:38;;;;;;;1.70;1.60;;;13.50;99.90;;;;;;5074122;28;20227;-69
2022/04/26 14:43:06;;;;;;;1.57;1.47;;;13.50;99.90;;;;;;5073682;28;20684;-67
2022/04/26 14:45:45;;;;;;;1.70;1.60;;;13.50;99.90;;;;;;5074658;28;20871;-67
2022/04/26 14:48:12;;;;;;;1.63;1.50;;;13.60;99.90;;;;;;5074500;28;20242;-67
2022/04/26 14:50:41;;;;;;;1.50;1.50;;;13.80;99.90;;;;;;5075012;28;20223;-66
2022/04/26 14:53:08;;;;;;;1.30;1.30;;;14.20;99.90;;;;;;5073866;28;20204;-67
2022/04/26 14:55:36;;;;;;;1.43;1.33;;;14.50;99.90;;;;;;5076163;28;20260;-66
2022/04/26 14:58:03;;;;;;;1.67;1.67;;;14.80;99.90;;;;;;5078054;28;20229;-65
2022/04/26 15:00:31;;;;;;;1.50;1.47;;;15.10;99.90;;;;;;5075541;28;20250;-66
2022/04/26 15:02:58;;;;;;;1.40;1.40;;;15.20;99.90;;;;;;5077162;28;20263;-67
2022/04/26 15:05:26;;;;;;;2.03;1.93;;;15.20;99.90;;;;;;5077349;28;20241;-65
2022/04/26 15:10:39;;;;;;;2.07;1.97;;;15.30;99.90;;;;;;5074027;28;20230;-64
2022/04/26 15:18:35;;;;;;;1.43;1.43;;;15.10;99.90;;;;;;5072322;28;20589;-66
2022/04/26 15:21:03;;;;;;;1.40;1.40;;;14.80;99.90;;;;;;5071341;28;20241;-66
2022/04/26 15:23:31;;;;;;;1.40;1.40;;;14.60;99.90;;;;;;5073109;28;20215;-67
2022/04/26 15:25:58;;;;;;;1.40;1.40;;;14.50;99.90;;;;;;5072909;28;20207;-67
2022/04/26 15:28:25;;;;;;;1.50;1.50;;;14.40;99.90;;;;;;5072624;28;20370;-67
2022/04/26 15:30:52;;;;;;;1.30;1.30;;;14.30;99.90;;;;;;5073041;28;20707;-68
2022/04/26 15:33:20;;;;;;;1.60;1.50;;;14.20;99.90;;;;;;5073119;28;20313;-65
2022/04/26 15:35:47;;;;;;;1.37;1.27;;;13.80;99.90;;;;;;5076070;28;20235;-66
2022/04/26 15:38:14;;;;;;;1.67;1.30;;;13.20;99.90;;;;;;5075713;28;20685;-66
2022/04/26 15:40:46;;;;;;;1.37;1.27;;;12.60;99.90;;;;;;5076920;28;20840;-66
2022/04/26 15:43:13;;;;;;;1.30;1.30;;;12.30;99.90;;;;;;5075396;28;20187;-67
2022/04/26 15:45:40;;;;;;;1.40;1.40;;;12.50;99.90;;;;;;5074252;28;20290;-65
2022/04/26 15:48:07;;;;;;;1.60;1.50;;;12.60;99.90;;;;;;5073036;28;20608;-66
2022/04/26 15:50:35;;;;;;;1.60;1.50;;;12.70;99.90;;;;;;5076024;28;20720;-66
2022/04/26 15:53:02;;;;;;;1.90;1.80;;;12.80;99.90;;;;;;5077285;28;20637;-65
2022/04/26 15:55:29;;;;;;;1.70;1.60;;;12.80;99.90;;;;;;5074614;28;20204;-65
2022/04/26 15:57:57;;;;;;;2.70;1.43;;;12.80;99.90;;;;;;5076393;28;20203;-65
2022/04/26 16:00:26;;;;;;;1.73;1.33;;;12.80;99.90;;;;;;5079208;28;20215;-66
2022/04/26 16:02:54;;;;;;;1.10;1.10;;;12.80;99.90;;;;;;5072677;28;20207;-66
2022/04/26 16:05:21;;;;;;;1.10;1.10;;;12.90;99.90;;;;;;5073410;28;20660;-66
2022/04/26 16:07:48;;;;;;;1.00;1.00;;;13.10;99.90;;;;;;5066846;28;20537;-66
2022/04/26 16:21:14;;;;;;;1.17;1.17;;;13.10;99.90;;;;;;5069000;28;20230;-68
2022/04/26 16:23:41;;;;;;;1.00;1.00;;;13.00;99.90;;;;;;5071519;28;20203;-67
2022/04/26 16:26:08;;;;;;;1.00;1.00;;;12.90;99.90;;;;;;5072236;28;20207;-66
2022/04/26 16:28:37;;;;;;;0.90;0.90;;;12.80;99.90;;;;;;5073693;28;20624;-66
2022/04/26 16:31:04;;;;;;;1.00;1.00;;;12.60;99.90;;;;;;5071939;28;20306;-66
2022/04/26 16:33:31;;;;;;;0.90;0.90;;;12.60;99.90;;;;;;5071576;28;20295;-66
2022/04/26 16:35:58;;;;;;;0.90;0.90;;;12.60;99.90;;;;;;5072205;28;20229;-66
2022/04/26 16:38:25;;;;;;;0.90;0.90;;;12.60;99.90;;;;;;5071495;28;20302;-66
2022/04/26 16:40:53;;;;;;;1.00;1.00;;;12.70;99.90;;;;;;5051427;28;20230;-66
2022/04/26 16:43:19;;;;;;;1.03;1.03;;;12.80;99.90;;;;;;5051429;28;20568;-66
2022/04/26 16:45:48;;;;;;;1.00;1.00;;;12.90;99.90;;;;;;5051909;28;20207;-67
2022/04/26 16:48:16;;;;;;;1.10;1.10;;;12.80;99.90;;;;;;5050953;28;20216;-67
2022/04/26 16:50:43;;;;;;;1.00;1.00;;;12.80;99.90;;;;;;5051858;28;20267;-66
2022/04/26 16:53:10;;;;;;;1.00;1.00;;;12.90;99.90;;;;;;5051471;28;20215;-68
2022/04/26 16:55:37;;;;;;;1.10;1.10;;;12.70;99.90;;;;;;5051374;28;20678;-67
2022/04/26 16:58:04;;;;;;;1.00;1.00;;;12.50;99.90;;;;;;5050955;28;20291;-66
2022/04/26 17:00:31;;;;;;;1.03;1.03;;;12.40;99.90;;;;;;5051502;28;20705;-67
2022/04/26 17:02:59;;;;;;;1.00;1.00;;;12.40;99.90;;;;;;5051217;28;20216;-66
2022/04/26 17:05:27;;;;;;;1.10;1.10;;;12.30;99.90;;;;;;5051454;28;20271;-67
2022/04/26 17:07:55;;;;;;;1.27;1.20;;;12.40;99.90;;;;;;5052093;28;20228;-67
2022/04/26 17:10:22;;;;;;;1.00;1.00;;;12.40;99.90;;;;;;5053301;28;20231;-66
2022/04/26 17:12:50;;;;;;;1.20;1.20;;;12.40;99.90;;;;;;5052202;28;20265;-68
2022/04/26 17:15:17;;;;;;;1.00;1.00;;;12.40;99.90;;;;;;5051848;28;20663;-67
2022/04/26 17:17:45;;;;;;;1.00;1.00;;;12.30;99.90;;;;;;5051469;28;20250;-66
2022/04/26 17:20:14;;;;;;;0.90;0.90;;;12.20;99.90;;;;;;5051488;28;20232;-67
2022/04/26 17:22:41;;;;;;;1.27;1.17;;;12.20;99.90;;;;;;5050885;28;20216;-67